createdAt,value
2023-05-15T00:00:24.177Z,64.17
2023-05-15T00:01:24.168Z,64.12
2023-05-15T00:02:24.270Z,64.38
2023-05-15T00:03:24.198Z,62.85
2023-05-15T00:04:24.188Z,63.55
2023-05-15T00:05:24.310Z,62.51
2023-05-15T00:06:24.106Z,62.06
2023-05-15T00:07:24.115Z,61.33
2023-05-15T00:08:24.107Z,59.37
2023-05-15T00:09:24.101Z,61.80
2023-05-15T00:10:24.068Z,63.01
2023-05-15T00:11:24.068Z,61.38
2023-05-15T00:12:24.044Z,61.90
2023-05-15T00:13:24.037Z,66.54
2023-05-15T00:14:24.026Z,65.64
2023-05-15T00:15:24.287Z,63.26
2023-05-15T00:16:24.046Z,64.27
2023-05-15T00:17:23.996Z,62.90
2023-05-15T00:18:23.981Z,65.90
2023-05-15T00:19:23.971Z,67.16
2023-05-15T00:20:24.008Z,65.02
2023-05-15T00:21:23.992Z,66.04
2023-05-15T00:22:23.959Z,62.27
2023-05-15T00:23:23.950Z,64.35
2023-05-15T00:24:23.932Z,64.65
2023-05-15T00:25:24.066Z,64.48
2023-05-15T00:26:23.951Z,63.94
2023-05-15T00:27:23.958Z,66.07
2023-05-15T00:28:23.895Z,64.62
2023-05-15T00:29:23.880Z,65.91
2023-05-15T00:30:23.895Z,66.50
2023-05-15T00:31:23.901Z,64.40
2023-05-15T00:32:23.869Z,63.45
2023-05-15T00:33:23.847Z,63.74
2023-05-15T00:34:24.846Z,64.82
2023-05-15T00:35:23.982Z,64.01
2023-05-15T00:36:23.816Z,66.51
2023-05-15T00:37:23.866Z,64.22
2023-05-15T00:38:23.800Z,65.20
2023-05-15T00:39:23.798Z,63.85
2023-05-15T00:40:23.802Z,64.14
2023-05-15T00:41:23.767Z,61.30
2023-05-15T00:42:23.754Z,63.13
2023-05-15T00:43:23.753Z,64.26
2023-05-15T00:44:23.730Z,66.07
2023-05-15T00:45:23.894Z,66.52
2023-05-15T00:46:23.740Z,64.23
2023-05-15T00:47:23.723Z,64.35
2023-05-15T00:48:23.698Z,62.74
2023-05-15T00:49:23.715Z,64.06
2023-05-15T00:50:23.686Z,64.88
2023-05-15T00:51:23.666Z,62.95
2023-05-15T00:52:23.695Z,65.22
2023-05-15T00:53:23.660Z,65.42
2023-05-15T00:54:23.657Z,62.77
2023-05-15T00:55:23.681Z,65.00
2023-05-15T00:56:23.625Z,65.89
2023-05-15T00:57:23.611Z,64.21
2023-05-15T00:58:23.595Z,64.19
2023-05-15T00:59:23.599Z,62.99
2023-05-15T01:00:23.593Z,68.00
2023-05-15T01:01:23.585Z,65.45
2023-05-15T01:02:23.602Z,67.16
2023-05-15T01:03:23.605Z,67.05
2023-05-15T01:04:23.570Z,64.30
2023-05-15T01:05:23.722Z,65.06
2023-05-15T01:06:23.515Z,65.90
2023-05-15T01:07:23.522Z,62.58
2023-05-15T01:08:23.511Z,64.25
2023-05-15T01:09:24.478Z,60.96
2023-05-15T01:10:23.477Z,63.07
2023-05-15T01:11:23.466Z,66.11
2023-05-15T01:12:23.476Z,67.60
2023-05-15T01:13:23.457Z,66.91
2023-05-15T01:14:23.449Z,66.78
2023-05-15T01:15:23.509Z,63.81
2023-05-15T01:16:23.417Z,65.19
2023-05-15T01:17:23.431Z,64.15
2023-05-15T01:18:23.567Z,62.81
2023-05-15T01:19:23.508Z,65.56
2023-05-15T01:20:23.369Z,67.49
2023-05-15T01:21:23.388Z,65.10
2023-05-15T01:22:23.375Z,64.89
2023-05-15T01:23:23.351Z,64.40
2023-05-15T01:24:23.341Z,67.86
2023-05-15T01:25:23.516Z,66.08
2023-05-15T01:26:23.360Z,65.75
2023-05-15T01:27:23.307Z,66.65
2023-05-15T01:28:23.292Z,65.22
2023-05-15T01:29:23.274Z,64.76
2023-05-15T01:30:23.269Z,65.91
2023-05-15T01:31:23.290Z,67.21
2023-05-15T01:32:23.300Z,66.88
2023-05-15T01:33:23.252Z,65.94
2023-05-15T01:34:23.245Z,65.24
2023-05-15T01:35:23.691Z,66.58
2023-05-15T01:36:23.236Z,67.33
2023-05-15T01:37:23.204Z,66.02
2023-05-15T01:38:23.194Z,67.55
2023-05-15T01:39:23.231Z,66.08
2023-05-15T01:40:24.170Z,66.15
2023-05-15T01:41:23.175Z,67.31
2023-05-15T01:42:23.156Z,67.16
2023-05-15T01:43:23.133Z,65.90
2023-05-15T01:44:23.134Z,68.02
2023-05-15T01:45:23.280Z,68.17
2023-05-15T01:46:23.180Z,68.03
2023-05-15T01:47:23.168Z,67.12
2023-05-15T01:48:23.085Z,64.36
2023-05-15T01:49:23.110Z,66.72
2023-05-15T01:50:23.098Z,65.69
2023-05-15T01:51:23.060Z,64.15
2023-05-15T01:52:23.074Z,68.17
2023-05-15T01:53:23.040Z,67.19
2023-05-15T01:54:23.064Z,65.84
2023-05-15T01:56:23.010Z,67.09
2023-05-15T01:57:23.002Z,67.60
2023-05-15T01:58:22.989Z,66.62
2023-05-15T01:59:23.006Z,64.96
2023-05-15T02:00:22.982Z,64.16
2023-05-15T02:01:22.977Z,67.22
2023-05-15T02:02:23.035Z,67.44
2023-05-15T02:03:23.014Z,65.37
2023-05-15T02:04:23.078Z,64.59
2023-05-15T02:05:23.051Z,68.03
2023-05-15T02:06:22.903Z,65.77
2023-05-15T02:07:22.891Z,65.18
2023-05-15T02:08:22.877Z,65.48
2023-05-15T02:09:22.889Z,67.34
2023-05-15T02:10:22.866Z,65.81
2023-05-15T02:11:22.857Z,67.22
2023-05-15T02:12:22.882Z,65.36
2023-05-15T02:13:22.850Z,66.94
2023-05-15T02:14:22.844Z,67.63
2023-05-15T02:15:23.149Z,67.88
2023-05-15T02:16:22.879Z,68.16
2023-05-15T02:17:22.807Z,66.79
2023-05-15T02:18:22.792Z,66.61
2023-05-15T02:19:22.767Z,67.16
2023-05-15T02:20:22.770Z,68.81
2023-05-15T02:21:22.754Z,66.85
2023-05-15T02:22:22.729Z,65.81
2023-05-15T02:23:22.745Z,69.71
2023-05-15T02:24:22.711Z,66.97
2023-05-15T02:25:22.842Z,69.79
2023-05-15T02:26:22.708Z,69.02
2023-05-15T02:27:22.736Z,67.51
2023-05-15T02:28:22.718Z,69.19
2023-05-15T02:29:22.659Z,65.26
2023-05-15T02:30:22.652Z,66.85
2023-05-15T02:31:24.394Z,67.22
2023-05-15T02:32:22.727Z,67.48
2023-05-15T02:33:22.613Z,66.73
2023-05-15T02:34:22.598Z,65.91
2023-05-15T02:35:22.670Z,67.61
2023-05-15T02:36:22.588Z,68.72
2023-05-15T02:37:22.596Z,66.86
2023-05-15T02:38:22.560Z,67.02
2023-05-15T02:39:22.552Z,66.98
2023-05-15T02:40:22.533Z,67.34
2023-05-15T02:41:22.595Z,67.21
2023-05-15T02:42:22.551Z,65.95
2023-05-15T02:43:22.515Z,66.67
2023-05-15T02:44:22.503Z,69.10
2023-05-15T02:45:22.495Z,69.48
2023-05-15T02:46:22.534Z,69.73
2023-05-15T02:47:22.503Z,68.06
2023-05-15T02:48:22.453Z,67.15
2023-05-15T02:49:22.455Z,65.32
2023-05-15T02:50:22.432Z,68.27
2023-05-15T02:51:22.455Z,66.24
2023-05-15T02:52:22.411Z,66.14
2023-05-15T02:53:22.405Z,68.02
2023-05-15T02:54:22.405Z,66.64
2023-05-15T02:55:22.482Z,68.29
2023-05-15T02:56:22.431Z,67.70
2023-05-15T02:57:22.358Z,66.09
2023-05-15T02:58:22.354Z,67.10
2023-05-15T02:59:22.345Z,66.16
2023-05-15T03:00:22.433Z,67.61
2023-05-15T03:01:22.372Z,66.97
2023-05-15T03:02:22.341Z,66.52
2023-05-15T03:03:22.299Z,67.08
2023-05-15T03:04:22.353Z,69.30
2023-05-15T03:05:22.342Z,67.98
2023-05-15T03:06:22.270Z,66.79
2023-05-15T03:07:22.253Z,68.10
2023-05-15T03:08:22.265Z,67.93
2023-05-15T03:09:22.261Z,70.02
2023-05-15T03:10:22.250Z,69.39
2023-05-15T03:11:22.238Z,68.43
2023-05-15T03:12:22.205Z,68.46
2023-05-15T03:13:22.190Z,69.16
2023-05-15T03:14:22.205Z,68.89
2023-05-15T03:15:22.163Z,69.13
2023-05-15T03:16:22.209Z,68.52
2023-05-15T03:17:22.158Z,68.71
2023-05-15T03:18:22.138Z,68.20
2023-05-15T03:19:22.166Z,68.57
2023-05-15T03:20:22.112Z,68.10
2023-05-15T03:21:23.111Z,68.96
2023-05-15T03:22:22.097Z,67.07
2023-05-15T03:23:22.105Z,67.56
2023-05-15T03:24:22.094Z,67.00
2023-05-15T03:25:22.105Z,69.14
2023-05-15T03:26:22.073Z,67.24
2023-05-15T03:27:22.048Z,68.21
2023-05-15T03:28:22.046Z,69.00
2023-05-15T03:29:22.030Z,67.37
2023-05-15T03:30:22.010Z,67.70
2023-05-15T03:31:22.010Z,68.71
2023-05-15T03:32:22.012Z,66.87
2023-05-15T03:33:23.013Z,67.43
2023-05-15T03:34:21.974Z,66.92
2023-05-15T03:35:22.053Z,68.55
2023-05-15T03:36:21.949Z,66.99
2023-05-15T03:37:21.964Z,69.06
2023-05-15T03:38:22.001Z,69.13
2023-05-15T03:39:21.926Z,68.82
2023-05-15T03:40:21.910Z,68.03
2023-05-15T03:41:21.903Z,68.77
2023-05-15T03:42:21.905Z,68.75
2023-05-15T03:43:21.886Z,69.14
2023-05-15T03:44:21.882Z,67.84
2023-05-15T03:45:21.865Z,68.77
2023-05-15T03:46:21.884Z,68.98
2023-05-15T03:47:21.885Z,69.16
2023-05-15T03:48:21.826Z,68.39
2023-05-15T03:49:21.828Z,67.59
2023-05-15T03:50:21.801Z,67.82
2023-05-15T03:51:21.812Z,67.46
2023-05-15T03:52:21.797Z,67.86
2023-05-15T03:53:21.769Z,67.85
2023-05-15T03:54:21.756Z,69.39
2023-05-15T03:55:21.773Z,68.52
2023-05-15T03:56:21.780Z,68.07
2023-05-15T03:57:21.737Z,69.46
2023-05-15T03:58:21.720Z,69.79
2023-05-15T03:59:21.720Z,67.56
2023-05-15T04:00:21.713Z,68.00
2023-05-15T04:01:21.723Z,68.39
2023-05-15T04:02:21.771Z,68.97
2023-05-15T04:03:21.828Z,67.20
2023-05-15T04:04:21.659Z,67.84
2023-05-15T04:05:21.822Z,69.24
2023-05-15T04:06:21.674Z,67.85
2023-05-15T04:07:21.631Z,66.36
2023-05-15T04:08:21.630Z,67.26
2023-05-15T04:09:21.628Z,67.59
2023-05-15T04:10:21.631Z,68.07
2023-05-15T04:11:21.605Z,67.72
2023-05-15T04:12:21.622Z,67.69
2023-05-15T04:13:21.560Z,68.43
2023-05-15T04:14:21.555Z,68.24
2023-05-15T04:15:21.705Z,67.41
2023-05-15T04:16:21.598Z,67.65
2023-05-15T04:17:21.574Z,67.12
2023-05-15T04:18:21.530Z,67.61
2023-05-15T04:19:21.562Z,67.30
2023-05-15T04:20:22.493Z,67.21
2023-05-15T04:21:21.512Z,68.53
2023-05-15T04:22:21.476Z,66.72
2023-05-15T04:23:21.467Z,66.90
2023-05-15T04:24:21.480Z,66.93
2023-05-15T04:25:21.445Z,66.74
2023-05-15T04:26:21.443Z,66.73
2023-05-15T04:27:21.425Z,65.61
2023-05-15T04:28:21.440Z,66.95
2023-05-15T04:29:21.489Z,65.93
2023-05-15T04:30:21.397Z,66.38
2023-05-15T04:31:21.424Z,65.92
2023-05-15T04:32:21.373Z,66.73
2023-05-15T04:33:21.418Z,66.49
2023-05-15T04:34:21.387Z,67.61
2023-05-15T04:35:21.348Z,66.27
2023-05-15T04:36:21.328Z,66.52
2023-05-15T04:37:21.322Z,68.38
2023-05-15T04:38:47.260Z,66.88
2023-05-15T04:39:21.304Z,66.79
2023-05-15T04:40:21.298Z,68.07
2023-05-15T04:41:21.294Z,68.06
2023-05-15T04:42:21.276Z,67.45
2023-05-15T04:43:21.288Z,66.80
2023-05-15T04:44:21.282Z,66.90
2023-05-15T04:45:21.289Z,67.28
2023-05-15T04:46:21.264Z,66.76
2023-05-15T04:47:22.276Z,66.03
2023-05-15T04:48:21.243Z,66.98
2023-05-15T04:49:21.215Z,66.14
2023-05-15T04:50:21.218Z,66.11
2023-05-15T04:51:21.208Z,68.09
2023-05-15T04:52:21.232Z,65.45
2023-05-15T04:53:21.177Z,66.42
2023-05-15T04:54:21.156Z,67.28
2023-05-15T04:55:21.147Z,65.95
2023-05-15T04:56:21.143Z,66.38
2023-05-15T04:57:21.146Z,67.35
2023-05-15T04:58:21.126Z,67.43
2023-05-15T04:59:21.112Z,67.03
2023-05-15T05:00:21.132Z,66.64
2023-05-15T05:01:21.178Z,66.52
2023-05-15T05:02:21.128Z,65.61
2023-05-15T05:03:21.098Z,65.68
2023-05-15T05:04:21.117Z,66.93
2023-05-15T05:05:21.049Z,66.39
2023-05-15T05:06:21.061Z,67.49
2023-05-15T05:07:21.029Z,65.43
2023-05-15T05:08:21.027Z,66.76
2023-05-15T05:09:21.014Z,66.32
2023-05-15T05:10:20.999Z,65.66
2023-05-15T05:11:21.015Z,64.25
2023-05-15T05:12:20.971Z,64.63
2023-05-15T05:13:20.988Z,65.45
2023-05-15T05:14:20.968Z,65.34
2023-05-15T05:15:20.968Z,65.77
2023-05-15T05:16:21.028Z,66.27
2023-05-15T05:17:20.919Z,66.01
2023-05-15T05:18:20.926Z,66.89
2023-05-15T05:19:20.917Z,64.89
2023-05-15T05:20:20.918Z,66.40
2023-05-15T05:21:20.907Z,66.51
2023-05-15T05:22:20.887Z,64.20
2023-05-15T05:23:20.892Z,65.72
2023-05-15T05:24:20.875Z,65.00
2023-05-15T05:25:20.869Z,65.11
2023-05-15T05:26:20.856Z,64.34
2023-05-15T05:27:20.838Z,65.47
2023-05-15T05:28:20.828Z,64.68
2023-05-15T05:29:20.829Z,65.72
2023-05-15T05:30:20.835Z,64.15
2023-05-15T05:31:20.838Z,66.37
2023-05-15T05:32:20.843Z,65.47
2023-05-15T05:33:20.797Z,66.14
2023-05-15T05:34:20.785Z,65.43
2023-05-15T05:35:20.753Z,65.67
2023-05-15T05:36:21.743Z,65.31
2023-05-15T05:37:20.748Z,64.21
2023-05-15T05:38:20.723Z,64.19
2023-05-15T05:39:20.733Z,65.53
2023-05-15T05:40:20.724Z,65.69
2023-05-15T05:41:20.715Z,64.92
2023-05-15T05:42:20.689Z,64.98
2023-05-15T05:43:20.702Z,65.66
2023-05-15T05:44:20.699Z,64.66
2023-05-15T05:45:20.686Z,64.95
2023-05-15T05:46:20.670Z,65.55
2023-05-15T05:47:20.712Z,65.58
2023-05-15T05:48:20.635Z,66.47
2023-05-15T05:49:20.613Z,65.97
2023-05-15T05:50:20.604Z,65.89
2023-05-15T05:51:20.589Z,65.86
2023-05-15T05:52:20.594Z,64.34
2023-05-15T05:53:20.607Z,65.63
2023-05-15T05:54:20.567Z,65.76
2023-05-15T05:55:20.563Z,65.50
2023-05-15T05:56:20.542Z,65.09
2023-05-15T05:57:20.577Z,65.32
2023-05-15T05:58:25.497Z,66.98
2023-05-15T05:59:22.524Z,67.02
2023-05-15T06:00:20.502Z,64.24
2023-05-15T06:01:20.526Z,65.37
2023-05-15T06:02:20.554Z,66.14
2023-05-15T06:03:20.630Z,65.05
2023-05-15T06:04:20.533Z,65.45
2023-05-15T06:05:20.473Z,65.39
2023-05-15T06:06:20.478Z,65.28
2023-05-15T06:07:20.474Z,64.05
2023-05-15T06:08:20.445Z,64.29
2023-05-15T06:09:20.431Z,66.32
2023-05-15T06:10:20.412Z,65.14
2023-05-15T06:11:20.447Z,64.39
2023-05-15T06:12:22.851Z,62.90
2023-05-15T06:13:21.386Z,63.19
2023-05-15T06:14:21.275Z,64.76
2023-05-15T06:15:20.380Z,64.17
2023-05-15T06:16:20.492Z,65.86
2023-05-15T06:17:20.346Z,64.92
2023-05-15T06:18:20.342Z,63.10
2023-05-15T06:19:20.391Z,63.82
2023-05-15T06:20:20.330Z,63.73
2023-05-15T06:21:20.318Z,62.96
2023-05-15T06:22:20.296Z,64.27
2023-05-15T06:23:20.412Z,64.65
2023-05-15T06:24:20.935Z,63.11
2023-05-15T06:25:20.281Z,64.17
2023-05-15T06:26:20.274Z,63.72
2023-05-15T06:27:20.252Z,62.88
2023-05-15T06:28:20.240Z,64.77
2023-05-15T06:29:20.244Z,64.28
2023-05-15T06:30:20.240Z,64.60
2023-05-15T06:31:20.281Z,64.77
2023-05-15T06:32:20.224Z,64.07
2023-05-15T06:33:20.192Z,63.71
2023-05-15T06:34:20.185Z,64.22
2023-05-15T06:35:20.206Z,63.77
2023-05-15T06:36:20.154Z,63.75
2023-05-15T06:37:20.166Z,63.60
2023-05-15T06:38:20.145Z,64.85
2023-05-15T06:39:20.162Z,64.24
2023-05-15T06:40:20.863Z,62.89
2023-05-15T06:41:20.196Z,64.03
2023-05-15T06:42:20.110Z,65.34
2023-05-15T06:43:20.091Z,64.34
2023-05-15T06:44:21.893Z,63.76
2023-05-15T06:45:20.103Z,65.51
2023-05-15T06:46:20.074Z,64.34
2023-05-15T06:47:20.056Z,63.95
2023-05-15T06:48:20.101Z,63.86
2023-05-15T06:49:20.053Z,63.49
2023-05-15T06:50:20.023Z,63.75
2023-05-15T06:51:20.021Z,64.22
2023-05-15T06:52:20.073Z,65.07
2023-05-15T06:53:20.161Z,63.28
2023-05-15T06:54:20.019Z,63.50
2023-05-15T06:55:20.005Z,63.19
2023-05-15T06:56:19.988Z,62.76
2023-05-15T06:57:19.980Z,63.38
2023-05-15T06:58:19.955Z,65.32
2023-05-15T06:59:19.949Z,64.44
2023-05-15T07:00:19.946Z,63.16
2023-05-15T07:01:19.965Z,64.35
2023-05-15T07:02:19.920Z,63.87
2023-05-15T07:03:19.895Z,64.24
2023-05-15T07:04:19.958Z,62.15
2023-05-15T07:05:19.890Z,63.23
2023-05-15T07:06:19.873Z,62.41
2023-05-15T07:07:19.901Z,64.78
2023-05-15T07:08:19.874Z,62.91
2023-05-15T07:09:19.936Z,61.05
2023-05-15T07:10:19.844Z,63.10
2023-05-15T07:11:19.820Z,63.47
2023-05-15T07:12:19.849Z,64.16
2023-05-15T07:13:19.811Z,61.79
2023-05-15T07:14:19.793Z,61.56
2023-05-15T07:15:19.796Z,62.46
2023-05-15T07:16:19.772Z,61.93
2023-05-15T07:17:19.805Z,61.67
2023-05-15T07:18:19.756Z,62.19
2023-05-15T07:19:19.814Z,61.35
2023-05-15T07:20:19.734Z,62.33
2023-05-15T07:21:19.737Z,62.61
2023-05-15T07:22:19.735Z,61.99
2023-05-15T07:23:19.705Z,61.47
2023-05-15T07:24:19.692Z,60.91
2023-05-15T07:25:19.952Z,63.79
2023-05-15T07:26:27.932Z,63.00
2023-05-15T07:27:21.667Z,60.84
2023-05-15T07:28:19.669Z,62.01
2023-05-15T07:29:19.631Z,62.80
2023-05-15T07:30:19.620Z,63.25
2023-05-15T07:31:19.703Z,63.83
2023-05-15T07:32:19.644Z,64.34
2023-05-15T07:33:19.599Z,66.71
2023-05-15T07:34:19.586Z,63.61
2023-05-15T07:35:19.609Z,63.76
2023-05-15T07:36:19.603Z,63.96
2023-05-15T07:37:19.573Z,65.07
2023-05-15T07:38:19.604Z,61.28
2023-05-15T07:39:19.618Z,63.56
2023-05-15T07:40:19.600Z,63.57
2023-05-15T07:41:19.541Z,62.59
2023-05-15T07:42:19.505Z,61.90
2023-05-15T07:43:19.529Z,64.48
2023-05-15T07:44:19.492Z,62.38
2023-05-15T07:45:19.596Z,62.62
2023-05-15T07:46:19.511Z,63.05
2023-05-15T07:47:19.470Z,62.34
2023-05-15T07:48:19.489Z,61.32
2023-05-15T07:49:19.443Z,63.59
2023-05-15T07:50:19.459Z,62.21
2023-05-15T07:51:19.416Z,62.13
2023-05-15T07:52:19.430Z,62.74
2023-05-15T07:53:19.405Z,63.58
2023-05-15T07:54:19.420Z,62.48
2023-05-15T07:55:19.382Z,61.11
2023-05-15T07:56:19.376Z,62.23
2023-05-15T07:57:19.370Z,61.91
2023-05-15T07:58:19.356Z,63.48
2023-05-15T07:59:19.374Z,63.10
2023-05-15T08:00:19.343Z,61.71
2023-05-15T08:01:19.319Z,62.92
2023-05-15T08:02:19.473Z,63.36
2023-05-15T08:03:19.569Z,62.11
2023-05-15T08:04:19.422Z,62.68
2023-05-15T08:05:19.282Z,62.79
2023-05-15T08:06:19.279Z,61.79
2023-05-15T08:07:19.269Z,62.02
2023-05-15T08:08:19.278Z,62.25
2023-05-15T08:09:19.239Z,63.33
2023-05-15T08:10:20.251Z,62.19
2023-05-15T08:11:19.230Z,62.55
2023-05-15T08:12:19.214Z,62.68
2023-05-15T08:13:19.259Z,61.77
2023-05-15T08:14:19.217Z,62.93
2023-05-15T08:15:19.190Z,61.40
2023-05-15T08:16:19.241Z,61.93
2023-05-15T08:17:19.176Z,60.81
2023-05-15T08:18:19.153Z,60.46
2023-05-15T08:19:19.194Z,61.28
2023-05-15T08:20:19.135Z,61.91
2023-05-15T08:21:19.187Z,61.14
2023-05-15T08:22:19.139Z,61.36
2023-05-15T08:23:19.155Z,61.50
2023-05-15T08:24:19.114Z,62.58
2023-05-15T08:25:19.098Z,60.53
2023-05-15T08:26:19.093Z,63.25
2023-05-15T08:27:19.105Z,62.78
2023-05-15T08:28:19.059Z,60.99
2023-05-15T08:29:19.040Z,61.51
2023-05-15T08:30:19.064Z,62.01
2023-05-15T08:31:19.111Z,60.97
2023-05-15T08:32:19.037Z,60.93
2023-05-15T08:33:19.014Z,59.95
2023-05-15T08:34:18.999Z,61.73
2023-05-15T08:35:18.994Z,61.71
2023-05-15T08:36:19.055Z,63.57
2023-05-15T08:37:18.974Z,61.86
2023-05-15T08:38:18.960Z,61.72
2023-05-15T08:39:18.943Z,61.35
2023-05-15T08:40:25.608Z,61.77
2023-05-15T08:41:28.859Z,62.24
2023-05-15T08:42:20.936Z,61.97
2023-05-15T08:43:18.904Z,63.04
2023-05-15T08:44:18.903Z,61.60
2023-05-15T08:45:18.898Z,62.15
2023-05-15T08:46:18.942Z,63.01
2023-05-15T08:47:18.873Z,62.27
2023-05-15T08:48:18.892Z,61.55
2023-05-15T08:49:18.846Z,62.63
2023-05-15T08:50:18.883Z,62.29
2023-05-15T08:51:18.858Z,62.64
2023-05-15T08:52:18.814Z,60.19
2023-05-15T08:53:19.842Z,62.33
2023-05-15T08:54:18.809Z,60.05
2023-05-15T08:55:18.816Z,60.75
2023-05-15T08:56:18.787Z,62.07
2023-05-15T08:57:18.757Z,60.77
2023-05-15T08:58:18.757Z,59.11
2023-05-15T08:59:18.770Z,60.12
2023-05-15T09:00:18.782Z,62.73
2023-05-15T09:01:19.765Z,61.91
2023-05-15T09:02:18.725Z,62.34
2023-05-15T09:03:18.860Z,62.32
2023-05-15T09:04:18.735Z,61.53
2023-05-15T09:05:18.700Z,61.63
2023-05-15T09:06:18.680Z,64.57
2023-05-15T09:07:18.669Z,61.29
2023-05-15T09:08:18.669Z,60.28
2023-05-15T09:09:18.681Z,62.13
2023-05-15T09:10:18.716Z,61.54
2023-05-15T09:11:18.635Z,60.06
2023-05-15T09:12:18.619Z,60.11
2023-05-15T09:13:18.670Z,60.94
2023-05-15T09:14:19.112Z,62.44
2023-05-15T09:15:18.602Z,61.91
2023-05-15T09:16:18.623Z,62.11
2023-05-15T09:17:18.579Z,60.22
2023-05-15T09:18:18.593Z,60.56
2023-05-15T09:19:18.660Z,62.88
2023-05-15T09:20:18.582Z,60.84
2023-05-15T09:21:18.542Z,62.10
2023-05-15T09:22:18.567Z,61.49
2023-05-15T09:23:18.537Z,62.79
2023-05-15T09:24:18.516Z,63.24
2023-05-15T09:25:18.499Z,61.45
2023-05-15T09:26:18.484Z,61.34
2023-05-15T09:27:18.495Z,58.33
2023-05-15T09:28:18.487Z,59.55
2023-05-15T09:29:19.055Z,59.91
2023-05-15T09:30:18.569Z,60.20
2023-05-15T09:31:18.470Z,61.00
2023-05-15T09:32:18.473Z,61.89
2023-05-15T09:33:18.450Z,62.45
2023-05-15T09:34:18.420Z,64.19
2023-05-15T09:35:18.400Z,62.46
2023-05-15T09:36:18.426Z,64.96
2023-05-15T09:37:18.403Z,65.56
2023-05-15T09:38:18.365Z,65.27
2023-05-15T09:39:18.358Z,65.25
2023-05-15T09:40:18.380Z,65.77
2023-05-15T09:41:18.380Z,64.80
2023-05-15T09:42:18.331Z,64.84
2023-05-15T09:43:18.323Z,66.11
2023-05-15T09:44:20.642Z,66.45
2023-05-15T09:45:18.318Z,67.56
2023-05-15T09:46:18.404Z,69.15
2023-05-15T09:47:18.468Z,67.85
2023-05-15T09:48:18.334Z,66.90
2023-05-15T09:49:18.289Z,67.53
2023-05-15T09:50:18.325Z,66.71
2023-05-15T09:51:18.259Z,65.78
2023-05-15T09:52:18.237Z,65.79
2023-05-15T09:53:21.327Z,67.18
2023-05-15T09:54:19.209Z,67.35
2023-05-15T09:55:18.222Z,67.33
2023-05-15T09:56:18.208Z,67.68
2023-05-15T09:57:18.183Z,66.89
2023-05-15T09:58:18.177Z,65.97
2023-05-15T09:59:18.169Z,67.95
2023-05-15T10:00:18.245Z,66.72
2023-05-15T10:01:18.190Z,67.46
2023-05-15T10:02:18.149Z,68.42
2023-05-15T10:03:18.159Z,67.36
2023-05-15T10:04:18.141Z,67.31
2023-05-15T10:05:23.574Z,66.73
2023-05-15T10:06:19.137Z,66.70
2023-05-15T10:07:18.114Z,65.38
2023-05-15T10:08:18.075Z,64.34
2023-05-15T10:09:18.088Z,66.45
2023-05-15T10:10:18.094Z,66.02
2023-05-15T10:11:18.047Z,66.48
2023-05-15T10:12:18.030Z,67.42
2023-05-15T10:13:18.031Z,67.94
2023-05-15T10:14:18.033Z,68.17
2023-05-15T10:15:18.006Z,69.26
2023-05-15T10:16:18.080Z,67.56
2023-05-15T10:17:17.990Z,68.01
2023-05-15T10:18:18.025Z,69.06
2023-05-15T10:19:18.019Z,69.24
2023-05-15T10:20:17.983Z,68.45
2023-05-15T10:21:18.003Z,66.99
2023-05-15T10:22:17.943Z,68.17
2023-05-15T10:23:17.955Z,65.99
2023-05-15T10:24:17.929Z,67.06
2023-05-15T10:25:17.913Z,68.20
2023-05-15T10:26:17.900Z,68.08
2023-05-15T10:27:17.889Z,68.61
2023-05-15T10:28:17.903Z,67.37
2023-05-15T10:29:17.891Z,67.15
2023-05-15T10:30:17.864Z,68.29
2023-05-15T10:31:17.874Z,68.93
2023-05-15T10:32:17.911Z,69.88
2023-05-15T10:33:17.848Z,69.35
2023-05-15T10:34:17.851Z,69.74
2023-05-15T10:35:17.818Z,67.24
2023-05-15T10:36:17.799Z,68.77
2023-05-15T10:37:17.848Z,65.70
2023-05-15T10:38:17.777Z,68.17
2023-05-15T10:42:00.741Z,68.04
2023-05-15T10:42:59.713Z,69.13
2023-05-15T10:43:59.699Z,69.14
2023-05-15T10:44:59.700Z,69.06
2023-05-15T10:45:59.684Z,68.15
2023-05-15T10:46:59.719Z,69.32
2023-05-15T10:47:59.702Z,69.19
2023-05-15T10:48:59.658Z,69.33
2023-05-15T10:49:59.644Z,69.39
2023-05-15T10:50:59.683Z,69.55
2023-05-15T10:51:59.638Z,67.32
2023-05-15T10:52:59.612Z,67.95
2023-05-15T10:53:59.598Z,67.72
2023-05-15T10:55:00.307Z,69.00
2023-05-15T10:55:59.626Z,69.24
2023-05-15T10:56:59.563Z,68.01
2023-05-15T10:57:59.562Z,66.84
2023-05-15T10:58:59.556Z,67.06
2023-05-15T10:59:59.550Z,67.51
2023-05-15T11:00:59.645Z,67.54
2023-05-15T11:01:59.519Z,66.83
2023-05-15T11:02:59.528Z,68.11
2023-05-15T11:03:59.520Z,67.50
2023-05-15T11:04:59.552Z,65.91
2023-05-15T11:05:59.515Z,67.21
2023-05-15T11:06:59.462Z,67.77
2023-05-15T11:07:59.452Z,68.40
2023-05-15T11:08:59.462Z,67.41
2023-05-15T11:09:59.468Z,69.41
2023-05-15T11:10:59.432Z,67.42
2023-05-15T11:11:59.415Z,69.52
2023-05-15T11:12:59.436Z,68.66
2023-05-15T11:14:00.507Z,70.80
2023-05-15T11:15:01.530Z,69.64
2023-05-15T11:16:00.514Z,70.49
2023-05-15T11:17:00.788Z,69.01
2023-05-15T11:18:00.556Z,68.58
2023-05-15T11:19:00.506Z,70.55
2023-05-15T11:20:00.486Z,70.88
2023-05-15T11:21:00.449Z,69.25
2023-05-15T11:22:00.440Z,70.97
2023-05-15T11:23:00.440Z,69.95
2023-05-15T11:24:00.447Z,69.57
2023-05-15T11:25:00.425Z,69.11
2023-05-15T11:26:00.397Z,68.44
2023-05-15T11:27:00.391Z,70.01
2023-05-15T11:28:00.406Z,68.63
2023-05-15T11:29:00.372Z,68.37
2023-05-15T11:30:00.356Z,68.44
2023-05-15T11:31:00.389Z,70.64
2023-05-15T11:32:00.346Z,69.76
2023-05-15T11:33:00.388Z,68.15
2023-05-15T11:34:00.322Z,68.24
2023-05-15T11:35:00.321Z,68.59
2023-05-15T11:36:00.310Z,69.61
2023-05-15T11:37:00.291Z,69.32
2023-05-15T11:38:00.318Z,68.65
2023-05-15T11:39:00.287Z,69.89
2023-05-15T11:40:00.253Z,68.59
2023-05-15T11:41:00.260Z,70.13
2023-05-15T11:42:01.032Z,68.04
2023-05-15T11:43:00.255Z,68.71
2023-05-15T11:44:00.221Z,69.90
2023-05-15T11:45:00.219Z,69.06
2023-05-15T11:46:00.279Z,69.71
2023-05-15T11:47:00.278Z,69.46
2023-05-15T11:48:00.272Z,67.77
2023-05-15T11:49:00.262Z,68.79
2023-05-15T11:50:01.194Z,68.16
2023-05-15T11:51:00.137Z,69.58
2023-05-15T11:52:00.162Z,69.16
2023-05-15T11:53:00.120Z,69.18
2023-05-15T11:54:00.140Z,69.66
2023-05-15T11:55:00.158Z,67.63
2023-05-15T11:56:00.163Z,68.42
2023-05-15T11:57:00.166Z,69.48
2023-05-15T11:58:00.085Z,67.28
2023-05-15T11:59:00.075Z,69.23
2023-05-15T12:00:00.061Z,69.39
2023-05-15T12:01:00.065Z,70.67
2023-05-15T12:02:00.141Z,70.56
2023-05-15T12:03:00.183Z,69.52
2023-05-15T12:04:00.336Z,69.51
2023-05-15T12:05:00.091Z,69.06
2023-05-15T12:06:00.497Z,68.83
2023-05-15T12:07:02.898Z,70.54
2023-05-15T12:07:59.981Z,70.45
2023-05-15T12:08:59.974Z,70.44
2023-05-15T12:10:00.973Z,69.62
2023-05-15T12:10:59.985Z,70.28
2023-05-15T12:11:59.946Z,69.29
2023-05-15T12:12:59.926Z,69.19
2023-05-15T12:13:59.934Z,68.80
2023-05-15T12:14:59.962Z,68.80
2023-05-15T12:16:00.027Z,67.36
2023-05-15T12:16:59.926Z,67.26
2023-05-15T12:17:59.914Z,65.33
2023-05-15T12:18:59.944Z,66.41
2023-05-15T12:19:59.883Z,67.37
2023-05-15T12:20:59.882Z,66.18
2023-05-15T12:21:59.861Z,67.64
2023-05-15T12:22:59.838Z,67.19
2023-05-15T12:24:07.732Z,66.36
2023-05-15T12:25:01.855Z,66.95
2023-05-15T12:25:59.800Z,66.21
2023-05-15T12:26:59.805Z,66.03
2023-05-15T12:27:59.827Z,67.22
2023-05-15T12:28:59.772Z,65.95
2023-05-15T12:29:59.775Z,64.61
2023-05-15T12:30:59.751Z,64.64
2023-05-15T12:31:59.777Z,65.72
2023-05-15T12:32:59.769Z,66.70
2023-05-15T12:33:59.757Z,66.49
2023-05-15T12:34:59.736Z,66.42
2023-05-15T12:36:01.754Z,66.49
2023-05-15T12:37:00.703Z,67.21
2023-05-15T12:37:59.683Z,66.72
2023-05-15T12:38:59.721Z,66.53
2023-05-15T12:39:59.680Z,67.06
2023-05-15T12:40:59.661Z,68.33
2023-05-15T12:41:59.650Z,68.78
2023-05-15T12:42:59.642Z,68.90
2023-05-15T12:43:59.654Z,69.84
2023-05-15T12:44:59.600Z,68.72
2023-05-15T12:46:00.767Z,68.20
2023-05-15T12:46:59.589Z,67.85
2023-05-15T12:47:59.640Z,67.76
2023-05-15T12:48:59.622Z,68.52
2023-05-15T12:49:59.560Z,69.12
2023-05-15T12:50:59.553Z,69.74
2023-05-15T12:51:59.537Z,70.41
2023-05-15T12:52:59.535Z,70.26
2023-05-15T12:53:59.538Z,70.08
2023-05-15T12:54:59.523Z,69.37
2023-05-15T12:55:59.507Z,69.29